createdAt,value
2019-01-30T11:12:21.325Z,98696.31
2019-01-30T11:17:26.655Z,98689.11
2019-01-30T11:22:31.944Z,98682.33
2019-01-30T11:27:37.272Z,98686.05
2019-01-30T11:32:42.594Z,98687.06
2019-01-30T11:37:47.970Z,98692.14
2019-01-30T11:42:53.276Z,98690.56
2019-01-30T11:47:58.580Z,98687.98
2019-01-30T11:53:04.319Z,98677.27
2019-01-30T11:58:09.821Z,98680.05
2019-01-30T12:03:15.274Z,98676.63
2019-01-30T12:08:20.604Z,98673.25
2019-01-30T12:13:25.977Z,98667.72
2019-01-30T12:18:31.268Z,98669.71
2019-01-30T12:23:36.561Z,98668.13
2019-01-30T12:28:41.928Z,98674.80
2019-01-30T12:33:47.247Z,98675.54
2019-01-30T12:38:52.787Z,98676.17
2019-01-30T12:43:58.097Z,98677.45
2019-01-30T12:49:03.488Z,98682.25
2019-01-30T12:54:08.814Z,98686.55
2019-01-30T12:59:14.128Z,98691.06
2019-01-30T13:04:19.411Z,98700.42
2019-01-30T13:09:24.763Z,98706.25
2019-01-30T13:14:30.250Z,98711.67
2019-01-30T13:19:35.554Z,98713.55
2019-01-30T13:24:40.862Z,98718.16
2019-01-30T13:29:46.228Z,98721.70
2019-01-30T13:34:51.685Z,98723.30
2019-01-30T13:39:56.992Z,98730.60
2019-01-30T13:45:02.318Z,98733.50
2019-01-30T13:50:20.544Z,98735.68
2019-01-30T13:55:25.917Z,98742.47
2019-01-30T14:00:33.874Z,98742.59
2019-01-30T14:05:39.294Z,98754.23
2019-01-30T14:10:44.689Z,98759.95
2019-01-30T14:15:50.104Z,98769.73
2019-01-30T14:20:55.500Z,98773.97
2019-01-30T14:26:00.794Z,98779.88
2019-01-30T14:31:06.341Z,98792.31
2019-01-30T14:36:11.654Z,98795.53
2019-01-30T14:41:17.077Z,98803.32
2019-01-30T14:46:22.510Z,98807.73
2019-01-30T14:51:27.803Z,98811.45
2019-01-30T14:56:33.116Z,98813.98
2019-01-30T15:01:38.440Z,98826.68
2019-01-30T15:06:43.788Z,98835.23
2019-01-30T15:11:49.159Z,98847.12
2019-01-30T15:16:54.714Z,98857.73
2019-01-30T15:22:02.016Z,98858.75
2019-01-30T15:27:07.386Z,98857.87
2019-01-30T15:32:12.699Z,98872.41
2019-01-30T15:37:18.040Z,98883.72
2019-01-30T15:42:23.335Z,98890.84
2019-01-30T15:47:28.640Z,98898.85
2019-01-30T15:52:33.975Z,98901.10
2019-01-30T15:57:39.290Z,98908.39
2019-01-30T16:02:44.677Z,98907.82
2019-01-30T16:07:50.058Z,98920.59
2019-01-30T16:12:55.391Z,98927.59
2019-01-30T16:18:00.786Z,98928.91
2019-01-30T16:23:06.111Z,98931.42
2019-01-30T16:28:11.421Z,98932.38
2019-01-30T16:33:17.026Z,98937.61
2019-01-30T16:38:22.403Z,98941.26
2019-01-30T16:43:27.828Z,98952.27
2019-01-30T16:48:33.176Z,98961.58
2019-01-30T16:53:38.498Z,98972.75
2019-01-30T16:58:43.775Z,98978.00
2019-01-30T17:03:49.057Z,98984.52
2019-01-30T17:08:54.564Z,98990.98
2019-01-30T17:13:59.949Z,98999.02
2019-01-30T17:19:05.387Z,99002.82
2019-01-30T17:24:12.055Z,98999.33
2019-01-30T17:29:19.477Z,99009.20
2019-01-30T17:34:25.788Z,99014.73
2019-01-30T17:39:41.187Z,99017.64
2019-01-30T17:44:47.504Z,99024.38
2019-01-30T17:49:52.848Z,99025.96
2019-01-30T17:54:58.165Z,99028.23
2019-01-30T18:00:05.283Z,99036.75
2019-01-30T18:05:10.711Z,99042.53
2019-01-30T18:10:17.927Z,99041.86
2019-01-30T18:15:23.461Z,99046.77
2019-01-30T18:20:28.868Z,99051.42
2019-01-30T18:25:34.187Z,99054.94
2019-01-30T18:30:39.758Z,99065.48
2019-01-30T18:35:45.119Z,99059.67
2019-01-30T18:40:50.433Z,99055.09
2019-01-30T18:45:55.870Z,99057.91
2019-01-30T18:51:01.351Z,99058.67
2019-01-30T18:56:07.111Z,99060.65
2019-01-30T19:01:12.638Z,99064.08
2019-01-30T19:06:18.104Z,99062.27
2019-01-30T19:11:23.837Z,99066.80
2019-01-30T19:16:29.362Z,99071.58
2019-01-30T19:21:34.919Z,99070.36
2019-01-30T19:26:40.498Z,99082.27
2019-01-30T19:31:46.111Z,99073.86
2019-01-30T19:37:02.932Z,99077.64
2019-01-30T19:41:58.866Z,99080.00
2019-01-30T19:47:04.336Z,99085.08
2019-01-30T19:52:09.834Z,99086.70
2019-01-30T19:57:15.822Z,99093.02
2019-01-30T20:02:21.246Z,99086.02
2019-01-30T20:07:26.913Z,99093.22
2019-01-30T20:12:32.356Z,99098.70
2019-01-30T20:17:37.883Z,99094.11
2019-01-30T20:22:43.447Z,99099.25
2019-01-30T20:27:48.886Z,99104.34
2019-01-30T20:32:54.510Z,99115.17
2019-01-30T20:37:59.857Z,99110.72
2019-01-30T20:43:05.174Z,99120.95
2019-01-30T20:48:10.571Z,99116.87
2019-01-30T20:53:15.899Z,99122.63
2019-01-30T20:58:21.268Z,99126.48
2019-01-30T21:03:26.591Z,99129.77
2019-01-30T21:08:31.917Z,99134.75
2019-01-30T21:13:37.273Z,99140.27
2019-01-30T21:18:42.606Z,99141.16
2019-01-30T21:23:47.939Z,99143.02
2019-01-30T21:28:53.281Z,99145.23
2019-01-30T21:33:58.620Z,99150.54
2019-01-30T21:39:05.534Z,99155.18
2019-01-30T21:44:10.834Z,99161.78
2019-01-30T21:54:20.307Z,99165.02
2019-01-30T21:59:25.643Z,99160.55
2019-01-30T22:04:30.944Z,99176.27
2019-01-30T22:09:36.298Z,99183.73
2019-01-30T22:14:41.797Z,99187.00
2019-01-30T22:19:47.132Z,99193.34
2019-01-30T22:24:52.463Z,99194.15
2019-01-30T22:29:57.836Z,99194.63
2019-01-30T22:35:03.143Z,99201.42
2019-01-30T22:40:10.167Z,99207.80
2019-01-30T22:45:17.205Z,99206.52
2019-01-30T22:50:22.794Z,99210.83
2019-01-30T22:55:28.172Z,99213.00
2019-01-30T23:01:20.354Z,99219.05
2019-01-30T23:07:29.158Z,99220.98
2019-01-30T23:13:22.170Z,99231.99
2019-01-30T23:19:00.695Z,99228.44
2019-01-30T23:24:56.294Z,99224.42
2019-01-30T23:30:45.216Z,99232.58
2019-01-30T23:36:27.323Z,99235.08
2019-01-30T23:42:01.697Z,99233.04
2019-01-30T23:47:54.011Z,99235.24
2019-01-30T23:53:56.198Z,99240.17
2019-01-30T23:59:43.339Z,99242.39
